createdAt,value
2023-11-02T00:00:58.711Z,709
2023-11-02T00:02:00.609Z,709.4
2023-11-02T00:03:03.411Z,709.9
2023-11-02T00:04:05.829Z,710.2
2023-11-02T00:05:08.132Z,710.4
2023-11-02T00:06:10.525Z,711
2023-11-02T00:07:12.761Z,711.8
2023-11-02T00:08:14.452Z,712.2
2023-11-02T00:09:16.831Z,712.1
2023-11-02T00:10:18.787Z,712.4
2023-11-02T00:11:20.951Z,713
2023-11-02T00:12:23.119Z,712.6
2023-11-02T00:13:25.216Z,712.5
2023-11-02T00:14:27.152Z,712.6
2023-11-02T00:15:29.452Z,712.9
2023-11-02T00:16:31.214Z,713
2023-11-02T00:17:33.154Z,713.5
2023-11-02T00:18:35.425Z,713.1
2023-11-02T00:19:37.679Z,713.4
2023-11-02T00:20:40.141Z,713.7
2023-11-02T00:21:42.095Z,713.9
2023-11-02T00:22:44.029Z,714
2023-11-02T00:23:46.012Z,714
2023-11-02T00:24:48.127Z,714.1
2023-11-02T00:25:50.227Z,714.1
2023-11-02T00:26:52.612Z,714.5
2023-11-02T00:27:54.711Z,714.6
2023-11-02T00:28:56.811Z,715.3
2023-11-02T00:29:59.040Z,715.2
2023-11-02T00:31:00.954Z,715.4
2023-11-02T00:32:02.879Z,715.5
2023-11-02T00:33:05.579Z,715.3
2023-11-02T00:34:08.001Z,715.3
2023-11-02T00:35:10.403Z,715.5
2023-11-02T00:36:12.736Z,715.5
2023-11-02T00:37:14.876Z,715.8
2023-11-02T00:38:16.994Z,716
2023-11-02T00:39:19.286Z,716.1
2023-11-02T00:40:21.251Z,716.3
2023-11-02T00:41:23.152Z,716
2023-11-02T00:42:25.602Z,716.3
2023-11-02T00:43:27.953Z,716
2023-11-02T00:44:30.132Z,716.5
2023-11-02T00:45:32.212Z,716.4
2023-11-02T00:46:34.097Z,716.4
2023-11-02T00:47:36.357Z,716.8
2023-11-02T00:48:39.155Z,716.6
2023-11-02T00:49:41.320Z,716.5
2023-11-02T00:50:43.434Z,716.6
2023-11-02T00:51:45.618Z,716
2023-11-02T00:52:47.695Z,716.8
2023-11-02T00:53:49.610Z,716.7
2023-11-02T00:54:51.803Z,717
2023-11-02T00:55:53.893Z,717.1
2023-11-02T00:56:56.183Z,717
2023-11-02T00:57:58.179Z,717.2
2023-11-02T00:58:59.896Z,716.9
2023-11-02T01:00:02.341Z,717.2
2023-11-02T01:01:04.415Z,717.1
2023-11-02T01:02:06.494Z,717.5
2023-11-02T01:03:09.061Z,717.3
2023-11-02T01:04:11.341Z,717.4
2023-11-02T01:05:13.450Z,717.4
2023-11-02T01:06:15.820Z,718
2023-11-02T01:07:18.263Z,718
2023-11-02T01:08:20.437Z,717.8
2023-11-02T01:09:22.682Z,718.2
2023-11-02T01:10:24.632Z,718.2
2023-11-02T01:11:26.735Z,718.6
2023-11-02T01:12:29.149Z,718.9
2023-11-02T01:13:31.177Z,718.7
2023-11-02T01:14:32.894Z,719.3
2023-11-02T01:15:34.857Z,719.5
2023-11-02T01:16:36.986Z,719.5
2023-11-02T01:17:39.199Z,719.9
2023-11-02T01:18:41.606Z,720
2023-11-02T01:19:43.740Z,720.1
2023-11-02T01:20:45.828Z,720.7
2023-11-02T01:21:47.935Z,720.5
2023-11-02T01:22:50.071Z,720.9
2023-11-02T01:23:52.231Z,721.3
2023-11-02T01:24:54.332Z,721.2
2023-11-02T01:25:56.453Z,721.3
2023-11-02T01:26:58.617Z,721.9
2023-11-02T01:28:00.865Z,722.2
2023-11-02T01:29:03.079Z,722.5
2023-11-02T01:30:05.515Z,723
2023-11-02T01:31:07.476Z,723.4
2023-11-02T01:32:09.595Z,723.6
2023-11-02T01:33:11.776Z,723.6
2023-11-02T01:34:13.926Z,723.9
2023-11-02T01:35:15.859Z,724
2023-11-02T01:36:18.298Z,724.1
2023-11-02T01:37:20.418Z,723.8
2023-11-02T01:38:22.348Z,724.5
2023-11-02T01:39:24.809Z,724.8
2023-11-02T01:40:26.917Z,725.2
2023-11-02T01:41:28.811Z,725.2
2023-11-02T01:42:31.128Z,725.7
2023-11-02T01:43:33.257Z,726
2023-11-02T01:44:35.455Z,726.3
2023-11-02T01:45:37.611Z,726.2
2023-11-02T01:46:39.706Z,727
2023-11-02T01:47:41.948Z,727
2023-11-02T01:49:49.457Z,727.9
2023-11-02T01:50:51.376Z,728.4
2023-11-02T01:51:53.278Z,729
2023-11-02T01:52:55.252Z,729.1
2023-11-02T01:53:57.613Z,729
2023-11-02T01:54:59.750Z,729.4
2023-11-02T01:56:01.468Z,729.4
2023-11-02T01:57:03.792Z,729.9
2023-11-02T01:58:05.903Z,730.2
2023-11-02T01:59:08.041Z,730.4
2023-11-02T02:00:10.433Z,730.3
2023-11-02T02:01:12.605Z,730.8
2023-11-02T02:02:14.725Z,730.7
2023-11-02T02:03:17.117Z,730.4
2023-11-02T02:04:19.505Z,730.4
2023-11-02T02:05:21.985Z,731.1
2023-11-02T02:06:24.108Z,731.4
2023-11-02T02:07:26.218Z,732.4
2023-11-02T02:08:28.130Z,732.1
2023-11-02T02:09:30.525Z,732
2023-11-02T02:10:32.694Z,732.3
2023-11-02T02:11:34.561Z,732.9
2023-11-02T02:12:36.465Z,733.3
2023-11-02T02:13:38.585Z,733.9
2023-11-02T02:14:40.724Z,734.1
2023-11-02T02:15:42.979Z,734.2
2023-11-02T02:16:44.919Z,734.4
2023-11-02T02:17:47.135Z,734.9
2023-11-02T02:18:49.825Z,735.4
2023-11-02T02:19:51.840Z,735.7
2023-11-02T02:20:54.195Z,736.5
2023-11-02T02:21:56.113Z,736.7
2023-11-02T02:22:58.206Z,736.6
2023-11-02T02:24:00.451Z,737.2
2023-11-02T02:25:02.731Z,737.2
2023-11-02T02:26:04.838Z,737.4
2023-11-02T02:27:07.171Z,737.9
2023-11-02T02:28:09.745Z,737.4
2023-11-02T02:29:11.847Z,738
2023-11-02T02:30:13.934Z,738.3
2023-11-02T02:31:16.151Z,738.4
2023-11-02T02:32:18.308Z,738.5
2023-11-02T02:33:21.063Z,738.4
2023-11-02T02:34:23.301Z,738.6
2023-11-02T02:35:25.196Z,738.8
2023-11-02T02:36:27.564Z,739
2023-11-02T02:37:29.687Z,738.9
2023-11-02T02:38:31.826Z,738.7
2023-11-02T02:39:34.203Z,738.9
2023-11-02T02:40:36.209Z,738.6
2023-11-02T02:41:38.285Z,739.1
2023-11-02T02:42:40.457Z,739.2
2023-11-02T02:43:42.585Z,739.1
2023-11-02T02:44:44.689Z,739
2023-11-02T02:45:46.798Z,739.4
2023-11-02T02:46:48.971Z,739.6
2023-11-02T02:47:51.258Z,739.7
2023-11-02T02:48:54.019Z,739.9
2023-11-02T02:49:55.998Z,739.6
2023-11-02T02:50:58.216Z,739.4
2023-11-02T02:52:00.320Z,739.1
2023-11-02T02:53:02.450Z,739
2023-11-02T02:54:04.466Z,739.4
2023-11-02T02:55:06.583Z,739.2
2023-11-02T02:56:08.885Z,739.1
2023-11-02T02:57:11.078Z,738.7
2023-11-02T02:58:13.363Z,739.1
2023-11-02T02:59:15.483Z,739
2023-11-02T03:00:18.096Z,739.3
2023-11-02T03:01:20.247Z,739.6
2023-11-02T03:02:22.427Z,739.8
2023-11-02T03:03:24.704Z,740
2023-11-02T03:04:26.914Z,740.1
2023-11-02T03:05:29.358Z,740.5
2023-11-02T03:06:31.627Z,740.5
2023-11-02T03:07:33.622Z,740.9
2023-11-02T03:08:35.748Z,741
2023-11-02T03:09:37.847Z,741.1
2023-11-02T03:10:39.773Z,741.5
2023-11-02T03:11:41.945Z,741.7
2023-11-02T03:12:44.083Z,741.5
2023-11-02T03:13:46.071Z,741.9
2023-11-02T03:14:47.980Z,742.1
2023-11-02T03:15:50.073Z,741.7
2023-11-02T03:17:58.517Z,742.3
2023-11-02T03:19:00.937Z,742.4
2023-11-02T03:20:03.139Z,742.8
2023-11-02T03:21:05.064Z,743.7
2023-11-02T03:22:07.161Z,744.7
2023-11-02T03:23:09.167Z,745.6
2023-11-02T03:24:13.505Z,746.2
2023-11-02T03:25:16.307Z,746.2
2023-11-02T03:26:18.403Z,745.8
2023-11-02T03:27:20.734Z,746.4
2023-11-02T03:28:22.458Z,746.9
2023-11-02T03:29:24.568Z,747.3
2023-11-02T03:30:26.740Z,748.3
2023-11-02T03:31:28.896Z,748.4
2023-11-02T03:32:31.067Z,749
2023-11-02T03:33:33.762Z,749.2
2023-11-02T03:34:36.221Z,749.7
2023-11-02T03:35:38.659Z,749.3
2023-11-02T03:36:40.831Z,749.1
2023-11-02T03:37:42.909Z,749.1
2023-11-02T03:38:44.802Z,749.7
2023-11-02T03:39:46.740Z,749.6
2023-11-02T03:40:48.445Z,750.4
2023-11-02T03:41:50.173Z,750.8
2023-11-02T03:42:52.144Z,751.3
2023-11-02T03:43:54.302Z,751.3
2023-11-02T03:44:56.090Z,751.9
2023-11-02T03:45:58.039Z,751.5
2023-11-02T03:47:00.110Z,751.8
2023-11-02T03:48:02.734Z,752.2
2023-11-02T03:49:05.471Z,752.6
2023-11-02T03:50:07.803Z,753.1
2023-11-02T03:51:10.073Z,753.4
2023-11-02T03:52:12.176Z,754.1
2023-11-02T03:54:21.795Z,755.5
2023-11-02T03:55:23.759Z,755.9
2023-11-02T03:56:25.989Z,755.4
2023-11-02T03:57:28.202Z,755.9
2023-11-02T03:58:30.447Z,755.8
2023-11-02T03:59:32.797Z,756
2023-11-02T04:00:34.692Z,756
2023-11-02T04:01:36.608Z,756.8
2023-11-02T04:02:38.696Z,757.3
2023-11-02T04:03:40.965Z,757.8
2023-11-02T04:04:43.259Z,757.8
2023-11-02T04:05:45.788Z,757.9
2023-11-02T04:06:48.267Z,758
2023-11-02T04:07:50.388Z,758.5
2023-11-02T04:08:52.583Z,758.6
2023-11-02T04:09:54.537Z,758.5
2023-11-02T04:10:56.651Z,758.6
2023-11-02T04:11:58.945Z,759
2023-11-02T04:13:00.901Z,758.9
2023-11-02T04:14:02.827Z,759.1
2023-11-02T04:15:05.241Z,759.8
2023-11-02T04:16:07.122Z,760.5
2023-11-02T04:17:09.236Z,760.7
2023-11-02T04:18:11.818Z,761.1
2023-11-02T04:19:14.270Z,761.2
2023-11-02T04:20:16.511Z,762
2023-11-02T04:21:18.924Z,761.8
2023-11-02T04:22:20.928Z,762.6
2023-11-02T04:23:23.104Z,762.3
2023-11-02T04:24:25.262Z,762.5
2023-11-02T04:25:27.424Z,762.8
2023-11-02T04:26:29.562Z,763.2
2023-11-02T04:27:32.197Z,763.3
2023-11-02T04:28:34.147Z,763.2
2023-11-02T04:29:36.319Z,763.4
2023-11-02T04:30:38.653Z,763.6
2023-11-02T04:31:40.749Z,764.2
2023-11-02T04:32:42.804Z,764.4
2023-11-02T04:33:45.173Z,765.2
2023-11-02T04:34:47.162Z,765.5
2023-11-02T04:35:49.210Z,765.6
2023-11-02T04:36:51.122Z,766.1
2023-11-02T04:37:53.237Z,765.7
2023-11-02T04:38:55.189Z,767.1
2023-11-02T04:39:57.293Z,767.2
2023-11-02T04:40:59.393Z,767.4
2023-11-02T04:42:01.979Z,767.1
2023-11-02T04:43:04.221Z,766.9
2023-11-02T04:44:05.902Z,766.6
2023-11-02T04:45:08.014Z,766.3
2023-11-02T04:46:09.739Z,766.6
2023-11-02T04:47:11.848Z,765.9
2023-11-02T04:48:14.532Z,766.3
2023-11-02T04:49:16.924Z,766.6
2023-11-02T04:50:19.006Z,766.5
2023-11-02T04:51:21.376Z,766.1
2023-11-02T04:52:23.325Z,766.2
2023-11-02T04:53:25.024Z,766.3
2023-11-02T04:54:27.116Z,767
2023-11-02T04:55:28.887Z,767.4
2023-11-02T04:56:31.114Z,768.5
2023-11-02T04:57:33.404Z,769.2
2023-11-02T04:58:35.326Z,769.9
2023-11-02T04:59:37.477Z,770.7
2023-11-02T05:00:39.805Z,771.3
2023-11-02T05:01:41.791Z,771.5
2023-11-02T05:02:44.178Z,772.8
2023-11-02T05:03:46.656Z,772.8
2023-11-02T05:04:48.891Z,773.3
2023-11-02T05:05:50.842Z,773.2
2023-11-02T05:06:53.361Z,773.1
2023-11-02T05:07:55.590Z,773.6
2023-11-02T05:08:57.320Z,773.7
2023-11-02T05:09:59.012Z,773.6
2023-11-02T05:11:00.932Z,774
2023-11-02T05:12:03.290Z,774.5
2023-11-02T05:13:05.359Z,774.4
2023-11-02T05:14:07.121Z,774.2
2023-11-02T05:15:09.375Z,774.5
2023-11-02T05:16:11.318Z,774.6
2023-11-02T05:17:13.425Z,775.3
2023-11-02T05:18:15.737Z,775.8
2023-11-02T05:19:18.051Z,775.8
2023-11-02T05:20:20.277Z,775.8
2023-11-02T05:21:22.437Z,775.7
2023-11-02T05:22:24.661Z,775.2
2023-11-02T05:23:26.655Z,775.1
2023-11-02T05:24:28.988Z,774.8
2023-11-02T05:25:30.896Z,774.7
2023-11-02T05:26:32.986Z,775.1
2023-11-02T05:27:35.107Z,775.4
2023-11-02T05:28:37.260Z,775.6
2023-11-02T05:29:39.424Z,776
2023-11-02T05:30:41.848Z,775.9
2023-11-02T05:31:44.064Z,775.9
2023-11-02T05:32:46.434Z,776.3
2023-11-02T05:33:48.837Z,777
2023-11-02T05:34:51.131Z,777.4
2023-11-02T05:35:53.027Z,778
2023-11-02T05:36:55.139Z,777.9
2023-11-02T05:37:57.349Z,777.2
2023-11-02T05:38:59.568Z,776.7
2023-11-02T05:40:01.589Z,776.1
2023-11-02T05:41:03.346Z,776.1
2023-11-02T05:42:05.690Z,776.2
2023-11-02T05:43:07.625Z,776.5
2023-11-02T05:44:09.717Z,776.6
2023-11-02T05:45:12.105Z,777.3
2023-11-02T05:46:14.034Z,777.7
2023-11-02T05:47:16.210Z,778.1
2023-11-02T05:48:18.516Z,778.1
2023-11-02T05:49:21.013Z,778.1
2023-11-02T05:50:23.149Z,778.2
2023-11-02T05:51:25.256Z,778
2023-11-02T05:52:27.362Z,778
2023-11-02T05:53:29.356Z,777.8
2023-11-02T05:54:31.649Z,777.7
2023-11-02T05:55:33.585Z,777.5
2023-11-02T05:56:35.664Z,777.8
2023-11-02T05:57:38.027Z,778.1
2023-11-02T05:59:42.019Z,779.3
2023-11-02T06:00:43.911Z,779.8
2023-11-02T06:01:45.654Z,780.5
2023-11-02T06:02:47.994Z,780.7
2023-11-02T06:03:50.200Z,780.7
2023-11-02T06:04:52.671Z,781
2023-11-02T06:05:54.805Z,781.3
2023-11-02T06:06:57.722Z,782.3
2023-11-02T06:07:59.892Z,782.4
2023-11-02T06:09:02.384Z,783.1
2023-11-02T06:10:04.505Z,783.1
2023-11-02T06:11:06.472Z,782.8
2023-11-02T06:12:08.813Z,783.2
2023-11-02T06:13:10.766Z,782.7
2023-11-02T06:14:12.505Z,783.2
2023-11-02T06:15:14.731Z,782.8
2023-11-02T06:16:16.864Z,783.2
2023-11-02T06:17:18.779Z,782.9
2023-11-02T06:18:21.122Z,782.2
2023-11-02T06:19:23.218Z,782.6
2023-11-02T06:20:25.342Z,782.8
2023-11-02T06:21:27.634Z,783.1
2023-11-02T06:22:29.527Z,783.7
2023-11-02T06:23:31.396Z,784.6
2023-11-02T06:24:33.975Z,784.6
2023-11-02T06:25:36.158Z,784.5
2023-11-02T06:26:38.252Z,784.7
2023-11-02T06:27:40.738Z,785.1
2023-11-02T06:28:43.840Z,785.8
2023-11-02T06:29:45.961Z,785.5
2023-11-02T06:30:48.283Z,785.9
2023-11-02T06:31:50.225Z,786
2023-11-02T06:32:52.348Z,786.8
2023-11-02T06:33:55.142Z,787.4
2023-11-02T06:34:57.301Z,788
2023-11-02T06:35:59.455Z,788.7
2023-11-02T06:37:01.580Z,789.4
2023-11-02T06:38:03.471Z,789.3
2023-11-02T06:39:05.731Z,789.9
2023-11-02T06:40:08.033Z,790.6
2023-11-02T06:41:10.085Z,790.8
2023-11-02T06:42:12.324Z,790.9
2023-11-02T06:43:14.441Z,791.2
2023-11-02T06:44:16.365Z,791.3
2023-11-02T06:45:18.554Z,791.4
2023-11-02T06:46:20.694Z,792.4
2023-11-02T06:47:22.828Z,793
2023-11-02T06:48:25.500Z,793.1
2023-11-02T06:49:27.744Z,793.4
2023-11-02T06:50:29.858Z,793.2
2023-11-02T06:51:32.144Z,793.5
2023-11-02T06:52:34.248Z,794.1
2023-11-02T06:53:36.158Z,794.4
2023-11-02T06:54:38.577Z,794.2
2023-11-02T06:55:40.725Z,794.5
2023-11-02T06:56:42.967Z,795
2023-11-02T06:57:45.161Z,795.5
2023-11-02T06:58:47.303Z,794.3
2023-11-02T06:59:49.385Z,794.2
2023-11-02T07:00:51.791Z,793.9
2023-11-02T07:01:53.947Z,793.1
2023-11-02T07:02:56.004Z,793.6
2023-11-02T07:03:58.171Z,792.8
2023-11-02T07:05:01.100Z,793.1
2023-11-02T07:06:03.526Z,792.4
2023-11-02T07:07:06.287Z,792.3
2023-11-02T07:08:08.504Z,792
2023-11-02T07:09:10.724Z,791.7
2023-11-02T07:10:12.862Z,791.2
2023-11-02T07:11:15.049Z,790.8
2023-11-02T07:12:17.599Z,790.7
2023-11-02T07:13:19.727Z,790.8
2023-11-02T07:14:21.850Z,791
2023-11-02T07:15:24.087Z,791.1
2023-11-02T07:16:26.189Z,791.8
2023-11-02T07:17:28.500Z,791.6
2023-11-02T07:18:31.073Z,792.9
2023-11-02T07:19:33.326Z,793.6
2023-11-02T07:20:35.541Z,793.8
2023-11-02T07:21:37.890Z,794.7
2023-11-02T07:22:40.009Z,794.6
2023-11-02T07:23:42.203Z,794.7
2023-11-02T07:24:44.670Z,793.9
2023-11-02T07:25:46.738Z,794.7
2023-11-02T07:26:48.917Z,795.2
2023-11-02T07:27:51.129Z,795.2
2023-11-02T07:28:53.212Z,795.4
2023-11-02T07:29:55.111Z,795.5
2023-11-02T07:30:56.849Z,795.9
2023-11-02T07:31:58.970Z,795.9
2023-11-02T07:33:01.371Z,795.2
2023-11-02T07:34:04.028Z,794.8
2023-11-02T07:35:05.816Z,795.1
2023-11-02T07:37:12.743Z,794.3
2023-11-02T07:38:14.893Z,795
2023-11-02T07:39:16.600Z,795.2
2023-11-02T07:40:18.586Z,795.2
2023-11-02T07:41:20.694Z,795.7
2023-11-02T07:42:23.303Z,796.3
2023-11-02T07:43:25.447Z,796
2023-11-02T07:44:27.371Z,795.6
2023-11-02T07:45:29.731Z,795.5
2023-11-02T07:46:31.874Z,795.7
2023-11-02T07:47:34.153Z,795.9
2023-11-02T07:48:36.790Z,795.9
2023-11-02T07:49:39.198Z,796
2023-11-02T07:50:41.395Z,796
2023-11-02T07:51:43.676Z,796.1
2023-11-02T07:52:45.478Z,796.3
2023-11-02T07:53:47.621Z,796.7
2023-11-02T07:54:50.044Z,797.3
2023-11-02T07:55:51.989Z,797.2
2023-11-02T07:56:53.890Z,797.5
2023-11-02T07:57:55.896Z,797.9
2023-11-02T08:00:00.379Z,797.5
2023-11-02T08:01:02.483Z,797.1
2023-11-02T08:02:04.410Z,796.3
2023-11-02T08:03:06.776Z,795.8
2023-11-02T08:04:09.628Z,796.2
2023-11-02T08:05:11.805Z,797.2
2023-11-02T08:06:14.518Z,798
2023-11-02T08:07:17.080Z,798.8
2023-11-02T08:08:19.279Z,799.1
2023-11-02T08:09:21.247Z,798.8
2023-11-02T08:10:22.787Z,798.9
2023-11-02T08:11:24.795Z,798.7
2023-11-02T08:12:26.410Z,798.4
2023-11-02T08:13:28.862Z,798.7
2023-11-02T08:14:30.798Z,798.9
2023-11-02T08:15:32.991Z,799.4
2023-11-02T08:16:35.243Z,799.3
2023-11-02T08:18:45.399Z,799.5
2023-11-02T08:19:47.930Z,799.6
2023-11-02T08:20:49.882Z,800.4
2023-11-02T08:21:52.035Z,800.4
2023-11-02T08:22:54.122Z,800
2023-11-02T08:23:56.309Z,799
2023-11-02T08:24:58.206Z,798.9
2023-11-02T08:26:00.144Z,798.9
2023-11-02T08:27:02.195Z,799.1
2023-11-02T08:28:04.609Z,799.2
2023-11-02T08:29:06.923Z,799.2
2023-11-02T08:30:09.301Z,799
2023-11-02T08:31:11.278Z,799.1
2023-11-02T08:32:13.363Z,798.7
2023-11-02T08:33:15.758Z,798.8
2023-11-02T08:34:18.828Z,799
2023-11-02T08:35:20.857Z,800.3
2023-11-02T08:36:23.024Z,799.7
2023-11-02T08:37:24.996Z,800.1
2023-11-02T08:38:27.156Z,799.8
2023-11-02T08:39:34.105Z,799.7
2023-11-02T08:40:36.488Z,799.6
2023-11-02T08:41:38.596Z,800.2
2023-11-02T08:42:41.133Z,800
2023-11-02T08:43:43.042Z,801.1
2023-11-02T08:45:50.455Z,802.9
2023-11-02T08:46:52.600Z,802.7
2023-11-02T08:47:54.971Z,801.9
2023-11-02T08:48:57.643Z,801.6
2023-11-02T08:50:00.400Z,801.3
2023-11-02T08:51:02.486Z,801.7
2023-11-02T08:52:04.408Z,801.3
2023-11-02T08:53:07.718Z,801.8
2023-11-02T08:55:12.095Z,802.7
2023-11-02T08:56:14.059Z,803.1
2023-11-02T08:57:16.187Z,803.1
2023-11-02T08:58:18.170Z,803.2
2023-11-02T08:59:20.286Z,804.5
2023-11-02T09:00:22.755Z,805.2
2023-11-02T09:01:25.236Z,806.5
2023-11-02T09:02:27.447Z,806.5
2023-11-02T09:03:29.150Z,806.7
2023-11-02T09:04:31.401Z,806.1
2023-11-02T09:05:33.315Z,805.3
2023-11-02T09:06:35.790Z,804.7
2023-11-02T09:07:38.035Z,805
2023-11-02T09:08:39.765Z,804.7
2023-11-02T09:09:42.856Z,804.9
2023-11-02T09:10:45.038Z,804.7
2023-11-02T09:11:47.008Z,804.9
2023-11-02T09:12:49.462Z,804.7
2023-11-02T09:13:51.578Z,805
2023-11-02T09:14:53.718Z,804.8
2023-11-02T09:15:55.838Z,804.7
2023-11-02T09:16:57.864Z,804.7
2023-11-02T09:18:00.112Z,805.5
2023-11-02T09:19:02.512Z,806
2023-11-02T09:20:04.429Z,806
2023-11-02T09:21:06.490Z,805.3
2023-11-02T09:22:09.003Z,805.3
2023-11-02T09:23:10.943Z,805.2
2023-11-02T09:25:15.349Z,804.8
2023-11-02T09:26:17.489Z,804.2
2023-11-02T09:27:19.763Z,804.4
2023-11-02T09:28:22.027Z,804.2
2023-11-02T09:29:24.202Z,804.6
2023-11-02T09:30:26.641Z,804.8
2023-11-02T09:31:28.741Z,804.9
2023-11-02T09:32:31.091Z,804.9
2023-11-02T09:33:33.647Z,805.5
2023-11-02T09:34:36.101Z,806.1
2023-11-02T09:35:38.244Z,806.4
2023-11-02T09:36:40.539Z,806.6
2023-11-02T09:37:42.699Z,806.9
2023-11-02T09:38:44.632Z,806.8
2023-11-02T09:39:47.106Z,807.5
2023-11-02T09:40:49.138Z,807.5
2023-11-02T09:41:51.103Z,808.1
2023-11-02T09:42:53.055Z,808
2023-11-02T09:43:55.154Z,807.9
2023-11-02T09:44:57.048Z,808
2023-11-02T09:45:59.002Z,807.9
2023-11-02T09:47:01.161Z,807.9
2023-11-02T09:48:03.657Z,807.7
2023-11-02T09:49:06.124Z,808
2023-11-02T09:50:08.277Z,807.9
2023-11-02T09:51:10.536Z,808.2
2023-11-02T09:52:12.470Z,808.6
2023-11-02T09:53:14.717Z,808.5
2023-11-02T09:54:17.123Z,808.3
2023-11-02T09:55:19.141Z,808.5
2023-11-02T09:56:21.396Z,808.7
2023-11-02T09:57:23.944Z,808.6
2023-11-02T09:58:25.739Z,809.1
2023-11-02T09:59:27.699Z,809.4
2023-11-02T10:00:30.079Z,809.6
2023-11-02T10:01:32.329Z,809.5
2023-11-02T10:02:34.534Z,810.3
2023-11-02T10:03:36.957Z,810.2
2023-11-02T10:04:39.355Z,810.2
2023-11-02T10:05:41.683Z,810.5
2023-11-02T10:06:44.040Z,810.8
2023-11-02T10:07:46.134Z,810.8
2023-11-02T10:08:48.147Z,811
2023-11-02T10:09:50.343Z,811.3
2023-11-02T10:10:52.601Z,811.5
2023-11-02T10:11:55.301Z,811.8
2023-11-02T10:12:57.550Z,811.9
2023-11-02T10:13:59.492Z,812.4
2023-11-02T10:15:01.515Z,812.7
2023-11-02T10:16:03.719Z,813.2
2023-11-02T10:17:05.887Z,813.3
2023-11-02T10:18:08.382Z,813.3
2023-11-02T10:19:11.483Z,813.6
2023-11-02T10:20:14.457Z,813.6
2023-11-02T10:22:21.657Z,814.2
2023-11-02T10:23:23.784Z,814.9
2023-11-02T10:25:27.795Z,816.1
2023-11-02T10:26:29.732Z,817.2
2023-11-02T10:27:32.306Z,817.7
2023-11-02T10:28:34.520Z,818
2023-11-02T10:29:37.275Z,818.1
2023-11-02T10:30:39.799Z,818.1
2023-11-02T10:31:41.779Z,818.4
2023-11-02T10:32:43.698Z,818
2023-11-02T10:33:46.296Z,818.2
2023-11-02T10:34:49.002Z,817.9
2023-11-02T10:35:51.206Z,817.8
2023-11-02T10:36:53.225Z,818.3
2023-11-02T10:37:55.356Z,818.2
2023-11-02T10:38:57.385Z,818.7
2023-11-02T10:39:59.632Z,818.5
2023-11-02T10:41:01.676Z,818.8
2023-11-02T10:42:03.885Z,818.9
2023-11-02T10:43:06.131Z,818.5
2023-11-02T10:44:08.327Z,818.3
2023-11-02T10:45:10.581Z,818.5
2023-11-02T10:46:12.886Z,818.4
2023-11-02T10:47:14.873Z,818.1
2023-11-02T10:48:17.420Z,818.3
2023-11-02T10:49:20.112Z,818.3
2023-11-02T10:50:22.377Z,817.8
2023-11-02T10:51:24.677Z,817.3
2023-11-02T10:52:26.780Z,816.3
2023-11-02T10:53:28.923Z,815.9
2023-11-02T10:54:31.212Z,815.9
2023-11-02T10:55:33.431Z,816.1
2023-11-02T10:56:35.536Z,816.4
2023-11-02T10:57:37.907Z,816.4
2023-11-02T10:58:39.683Z,816.5
2023-11-02T10:59:41.842Z,816.4
2023-11-02T11:00:44.169Z,816.7
2023-11-02T11:01:46.304Z,816.7
2023-11-02T11:02:48.623Z,817.7
2023-11-02T11:03:50.963Z,818
2023-11-02T11:04:52.907Z,818.8
2023-11-02T11:05:54.881Z,819.3
2023-11-02T11:06:58.003Z,819.5
2023-11-02T11:08:00.245Z,819.6
2023-11-02T11:09:02.424Z,819.5
2023-11-02T11:10:04.299Z,819.3
2023-11-02T11:11:06.471Z,819
2023-11-02T11:12:08.667Z,819
2023-11-02T11:13:10.580Z,819.3
2023-11-02T11:14:12.778Z,819.4
2023-11-02T11:15:15.377Z,820
2023-11-02T11:16:17.540Z,820.2
2023-11-02T11:17:19.701Z,820.4
2023-11-02T11:18:22.069Z,820.9
2023-11-02T11:19:24.246Z,821
2023-11-02T11:20:27.126Z,820.9
2023-11-02T11:21:29.329Z,822.1
2023-11-02T11:22:31.331Z,822.9
2023-11-02T11:23:33.468Z,823.7
2023-11-02T11:24:35.873Z,822.9
2023-11-02T11:25:37.609Z,820.6
2023-11-02T11:26:39.713Z,818.2
2023-11-02T11:27:42.129Z,818.5
2023-11-02T11:28:44.191Z,818.9
2023-11-02T11:29:46.461Z,819.2
2023-11-02T11:30:48.784Z,819.7
2023-11-02T11:31:50.710Z,820.2
2023-11-02T11:32:53.028Z,820
2023-11-02T11:33:55.602Z,819.5
2023-11-02T11:34:57.873Z,819.5
2023-11-02T11:35:59.978Z,819.9
2023-11-02T11:37:01.766Z,820.2
2023-11-02T11:38:03.881Z,820.2
2023-11-02T11:39:06.248Z,820.5
2023-11-02T11:40:09.018Z,820.6
2023-11-02T11:41:11.187Z,821.3
2023-11-02T11:42:13.495Z,821.7
2023-11-02T11:43:16.892Z,821.7
2023-11-02T11:44:19.253Z,821.2
2023-11-02T11:45:21.570Z,820.5
2023-11-02T11:46:25.744Z,819.1
2023-11-02T11:47:27.826Z,817.4
2023-11-02T11:48:30.472Z,816.4
2023-11-02T11:49:32.712Z,817.8
2023-11-02T11:50:34.467Z,818.4
2023-11-02T11:51:36.562Z,817.9
2023-11-02T11:52:38.815Z,816.9
2023-11-02T11:53:40.546Z,816.3
2023-11-02T11:54:42.936Z,815.6
2023-11-02T11:55:44.864Z,814.7
2023-11-02T11:56:46.889Z,813.6
2023-11-02T11:57:49.182Z,813.3
2023-11-02T11:58:51.583Z,813.1
2023-11-02T11:59:53.789Z,814.5
2023-11-02T12:00:57.385Z,814.6
2023-11-02T12:01:59.537Z,812.8
2023-11-02T12:03:03.572Z,812.6
2023-11-02T12:04:05.567Z,811.9
2023-11-02T12:05:07.836Z,811.2
2023-11-02T12:06:10.015Z,810.9
2023-11-02T12:07:12.255Z,809.5
2023-11-02T12:08:14.168Z,808.3
2023-11-02T12:09:16.920Z,807.9
2023-11-02T12:10:19.193Z,807.4
2023-11-02T12:11:21.314Z,806.5
2023-11-02T12:12:23.585Z,806.3
2023-11-02T12:13:25.764Z,807
2023-11-02T12:14:27.839Z,806.1
2023-11-02T12:15:30.121Z,805.8
2023-11-02T12:16:32.313Z,803.1
2023-11-02T12:17:34.628Z,799.3
2023-11-02T12:18:37.104Z,798.6
2023-11-02T12:19:39.312Z,799.4
2023-11-02T12:20:42.754Z,798.6
2023-11-02T12:21:45.273Z,800.5
2023-11-02T12:22:47.425Z,798.4
2023-11-02T12:23:49.408Z,798.9
2023-11-02T12:24:51.721Z,798.5
2023-11-02T12:25:53.886Z,799.1
2023-11-02T12:26:56.006Z,798.8
2023-11-02T12:27:58.185Z,799.8
2023-11-02T12:29:00.580Z,799.9
2023-11-02T12:30:02.720Z,799.4
2023-11-02T12:31:04.890Z,799.4
2023-11-02T12:32:07.028Z,799.5
2023-11-02T12:33:09.204Z,799.5
2023-11-02T12:34:11.391Z,799.2
2023-11-02T12:35:13.745Z,799.5
2023-11-02T12:36:16.193Z,799.8
2023-11-02T12:37:18.279Z,799.2
2023-11-02T12:38:20.658Z,798.7
2023-11-02T12:39:23.480Z,799.2
2023-11-02T12:40:25.741Z,799.2
2023-11-02T12:41:28.121Z,798.9
2023-11-02T12:42:30.364Z,798.5
2023-11-02T12:43:32.568Z,798.8
2023-11-02T12:44:34.284Z,798.6
2023-11-02T12:45:36.815Z,799.4
2023-11-02T12:46:40.679Z,799.3
2023-11-02T12:47:43.630Z,799.3
2023-11-02T12:48:47.006Z,799.1
2023-11-02T12:50:51.432Z,798.5
2023-11-02T12:51:53.622Z,798
2023-11-02T12:52:55.747Z,798
2023-11-02T12:53:57.865Z,797.8
2023-11-02T12:55:00.133Z,797.7
2023-11-02T12:56:02.342Z,797.3
2023-11-02T12:57:04.318Z,797.3
2023-11-02T12:58:06.254Z,797.4
2023-11-02T12:59:08.191Z,796.8
2023-11-02T13:00:10.315Z,796.7
2023-11-02T13:01:12.539Z,797.2
2023-11-02T13:02:14.802Z,796.7
2023-11-02T13:03:16.982Z,797.3
2023-11-02T13:04:19.710Z,797.5
2023-11-02T13:05:21.881Z,797.8
2023-11-02T13:06:24.178Z,797.5
2023-11-02T13:07:26.309Z,797.9
2023-11-02T13:08:28.460Z,798.3
2023-11-02T13:09:30.716Z,797.8
2023-11-02T13:10:32.899Z,798
2023-11-02T13:11:35.018Z,797.8
2023-11-02T13:12:38.114Z,798
2023-11-02T13:13:40.246Z,797.9
2023-11-02T13:14:42.360Z,798.3
2023-11-02T13:15:44.903Z,798.6
2023-11-02T13:16:47.074Z,798.5
2023-11-02T13:17:49.727Z,798.9
2023-11-02T13:18:52.140Z,799.4
2023-11-02T13:20:57.895Z,799.7
2023-11-02T13:22:00.440Z,799.9
2023-11-02T13:23:04.409Z,800.4
2023-11-02T13:24:06.136Z,800.7
2023-11-02T13:25:08.555Z,800.3
2023-11-02T13:26:10.660Z,799.9
2023-11-02T13:27:12.770Z,800.2
2023-11-02T13:28:14.932Z,800
2023-11-02T13:29:19.455Z,800.5
2023-11-02T13:30:21.761Z,800.6
2023-11-02T13:31:24.099Z,800.8
2023-11-02T13:32:25.796Z,800.9
2023-11-02T13:33:29.685Z,800.8
2023-11-02T13:34:32.401Z,800.7
2023-11-02T13:35:34.574Z,800.6
2023-11-02T13:36:36.899Z,800.5
2023-11-02T13:37:38.982Z,800.5
2023-11-02T13:38:41.106Z,800.5
2023-11-02T13:39:42.955Z,800.5
2023-11-02T13:40:45.091Z,800.5
2023-11-02T13:41:47.326Z,800.8